37  °F
Temperature
3  °C
Temperature
-1  °C
 Dewpoint
30  °F
  Dewpoint
75  %
 Humidity
  Temperature
5  mph
Wind Speed
4  kts
Wind Speed
8  km/h
Wind Speed
2.2  m/s
Wind Speed
60°
East North
East

Wind Speed
Mostly Scattered
Clouds
Pressure 29.94 (inHG) - 1013.92 (mb)
Visibility 10.0 (mi) - 16.1 (km)

Sky Conditions
KPCW
Location Erie-Ottawa International 5 mi (8.05 km)
Metar :KPCW 180035Z AUTO 06004KT 10SM SCT028 BKN110 03/M01 A2994 RMK AO2
Sun 17th November 20:35 pm

Nearest Airport
https://www.checkwx.com/weather/KPCW
  Metar Aviation API Data Provided by https://www.checkwx.com/ Original CSS/SVG/PHP scripts by weather34.com © 2015-2019